Time;durP1;ratioP1;P1;durP2;ratioP2;P2;SDS_P1;SDS_P2;PMS_P1;PMS_P2;Temp;Humidity;BMP_temperature;BMP_pressure;BME280_temperature;BME280_humidity;BME280_pressure;Samples;Min_cycle;Max_cycle;Signal;HPM_P1;HPM_P2
2021/12/01 00:00:37;;;;;;;0.10;0.10;;;;;;;;;;5021178;28;20041;-71
2021/12/01 00:03:03;;;;;;;0.10;0.10;;;;;;;;;;5022330;28;20030;-71
2021/12/01 00:05:30;;;;;;;0.20;0.20;;;;;;;;;;5022229;28;20045;-72
2021/12/01 00:07:57;;;;;;;0.28;0.20;;;;;;;;;;5022290;28;20076;-73
2021/12/01 00:10:25;;;;;;;0.20;0.20;;;;;;;;;;5021796;28;20036;-73
2021/12/01 00:12:51;;;;;;;4.22;0.47;;;;;;;;;;5022705;28;20504;-71
2021/12/01 00:15:17;;;;;;;0.25;0.25;;;;;;;;;;5021927;28;20555;-74
2021/12/01 00:17:43;;;;;;;0.20;0.20;;;;;;;;;;5021071;28;20403;-71
2021/12/01 00:20:10;;;;;;;0.30;0.30;;;;;;;;;;5020619;28;20029;-71
2021/12/01 00:22:36;;;;;;;0.30;0.30;;;;;;;;;;5021104;28;20037;-71
2021/12/01 00:25:04;;;;;;;0.15;0.15;;;;;;;;;;5020992;28;20102;-71
2021/12/01 00:27:30;;;;;;;0.28;0.28;;;;;;;;;;5020848;28;20045;-71
2021/12/01 00:29:57;;;;;;;0.10;0.10;;;;;;;;;;5020471;28;20083;-73
2021/12/01 00:32:23;;;;;;;0.20;0.20;;;;;;;;;;5020416;28;20040;-74
2021/12/01 00:34:48;;;;;;;0.63;0.30;;;;;;;;;;5020756;28;20127;-70
2021/12/01 00:37:14;;;;;;;0.17;0.17;;;;;;;;;;5020926;28;20033;-71
2021/12/01 00:39:39;;;;;;;0.22;0.22;;;;;;;;;;5020733;28;20386;-74
2021/12/01 00:42:06;;;;;;;0.20;0.20;;;;;;;;;;5019931;28;20044;-71
2021/12/01 00:44:34;;;;;;;0.20;0.20;;;;;;;;;;5020698;28;20516;-70
2021/12/01 00:49:28;;;;;;;0.22;0.22;;;;;;;;;;5020867;28;20117;-73
2021/12/01 00:51:53;;;;;;;0.30;0.30;;;;;;;;;;5019661;28;20135;-72
2021/12/01 00:54:19;;;;;;;0.10;0.10;;;;;;;;;;5020719;28;20048;-73
2021/12/01 00:56:45;;;;;;;0.20;0.20;;;;;;;;;;5020667;28;20077;-73
2021/12/01 00:59:11;;;;;;;0.22;0.22;;;;;;;;;;5022736;28;20084;-71
2021/12/01 01:01:40;;;;;;;0.10;0.10;;;;;;;;;;5024421;28;20021;-73
2021/12/01 01:04:05;;;;;;;0.20;0.20;;;;;;;;;;5023566;28;20033;-72
2021/12/01 01:06:31;;;;;;;0.28;0.28;;;;;;;;;;5025251;28;20047;-72
2021/12/01 01:08:56;;;;;;;0.20;0.20;;;;;;;;;;5025225;28;20029;-71
2021/12/01 01:16:51;;;;;;;0.20;0.20;;;;;;;;;;5025777;28;20717;-74
2021/12/01 01:19:17;;;;;;;0.20;0.20;;;;;;;;;;5026040;28;20052;-72
2021/12/01 01:21:49;;;;;;;0.20;0.20;;;;;;;;;;5025143;28;20033;-71
2021/12/01 01:24:16;;;;;;;0.40;0.40;;;;;;;;;;5024482;28;20103;-72
2021/12/01 01:26:41;;;;;;;0.30;0.30;;;;;;;;;;5025561;28;20128;-74
2021/12/01 01:29:07;;;;;;;0.38;0.38;;;;;;;;;;5026019;28;20028;-71
2021/12/01 01:31:34;;;;;;;0.30;0.30;;;;;;;;;;5025567;28;20033;-71
2021/12/01 01:33:59;;;;;;;0.20;0.20;;;;;;;;;;5025202;28;20053;-71
2021/12/01 01:36:27;;;;;;;0.20;0.20;;;;;;;;;;5024367;28;20118;-71
2021/12/01 01:38:55;;;;;;;0.10;0.10;;;;;;;;;;5025290;28;20033;-71
2021/12/01 01:41:22;;;;;;;0.20;0.20;;;;;;;;;;5024774;28;20052;-73
2021/12/01 01:43:49;;;;;;;1.80;0.30;;;;;;;;;;5024710;28;20044;-71
2021/12/01 01:46:15;;;;;;;0.15;0.15;;;;;;;;;;5024220;28;20045;-73
2021/12/01 01:48:50;;;;;;;0.20;0.20;;;;;;;;;;5024746;28;20033;-74
2021/12/01 01:51:18;;;;;;;0.13;0.13;;;;;;;;;;5024358;28;20033;-71
2021/12/01 01:53:44;;;;;;;0.20;0.20;;;;;;;;;;5026712;28;20407;-73
2021/12/01 01:56:10;;;;;;;0.20;0.20;;;;;;;;;;5025799;28;20044;-72
2021/12/01 01:58:36;;;;;;;0.35;0.35;;;;;;;;;;5024800;28;20033;-71
2021/12/01 02:01:07;;;;;;;0.22;0.22;;;;;;;;;;5056521;28;20033;-72
2021/12/01 02:03:41;;;;;;;0.30;0.30;;;;;;;;;;5025039;28;20037;-71
2021/12/01 02:06:08;;;;;;;0.22;0.22;;;;;;;;;;5023450;28;20125;-72
2021/12/01 02:08:35;;;;;;;0.20;0.20;;;;;;;;;;5023515;28;20446;-69
2021/12/01 02:11:04;;;;;;;0.20;0.20;;;;;;;;;;5022314;28;20045;-71
2021/12/01 02:13:31;;;;;;;0.10;0.10;;;;;;;;;;5023842;28;20049;-71
2021/12/01 02:15:57;;;;;;;0.20;0.20;;;;;;;;;;5023089;28;20037;-72
2021/12/01 02:18:23;;;;;;;0.20;0.20;;;;;;;;;;5023868;28;20037;-70
2021/12/01 02:21:02;;;;;;;0.25;0.25;;;;;;;;;;5022758;28;20467;-70
2021/12/01 02:23:28;;;;;;;0.20;0.20;;;;;;;;;;5023486;28;20049;-71
2021/12/01 02:25:54;;;;;;;0.20;0.20;;;;;;;;;;5023436;28;20048;-70
2021/12/01 02:28:20;;;;;;;0.52;0.30;;;;;;;;;;5023473;28;20041;-70
2021/12/01 02:30:46;;;;;;;0.20;0.20;;;;;;;;;;5021799;28;20048;-71
2021/12/01 02:33:12;;;;;;;0.20;0.20;;;;;;;;;;5023216;28;20041;-70
2021/12/01 02:35:37;;;;;;;0.20;0.20;;;;;;;;;;5022895;28;20126;-70
2021/12/01 02:38:04;;;;;;;0.20;0.20;;;;;;;;;;5023257;28;20033;-71
2021/12/01 02:40:30;;;;;;;0.20;0.20;;;;;;;;;;5023137;28;20579;-72
2021/12/01 02:42:55;;;;;;;0.20;0.20;;;;;;;;;;5022159;28;20033;-72
2021/12/01 02:45:20;;;;;;;0.20;0.20;;;;;;;;;;5022680;28;20107;-70
2021/12/01 02:47:46;;;;;;;0.10;0.10;;;;;;;;;;5022482;28;20080;-72
2021/12/01 02:50:12;;;;;;;0.20;0.20;;;;;;;;;;5023550;28;20048;-72
2021/12/01 02:52:37;;;;;;;0.20;0.20;;;;;;;;;;5022491;28;20041;-72
2021/12/01 02:55:06;;;;;;;0.30;0.30;;;;;;;;;;5022927;28;20069;-71
2021/12/01 02:57:51;;;;;;;0.20;0.20;;;;;;;;;;5023078;28;20220;-72
2021/12/01 03:00:21;;;;;;;0.10;0.10;;;;;;;;;;5055029;28;21003;-73
2021/12/01 03:02:47;;;;;;;0.20;0.20;;;;;;;;;;5023147;28;20045;-70
2021/12/01 03:05:15;;;;;;;0.10;0.10;;;;;;;;;;5022688;28;20026;-71
2021/12/01 03:07:42;;;;;;;0.20;0.20;;;;;;;;;;5022847;28;20499;-74
2021/12/01 03:10:07;;;;;;;0.20;0.20;;;;;;;;;;5022760;28;20091;-71
2021/12/01 03:12:35;;;;;;;0.20;0.20;;;;;;;;;;5022878;28;20480;-71
2021/12/01 03:15:01;;;;;;;0.20;0.20;;;;;;;;;;5022477;28;20431;-71
2021/12/01 03:17:31;;;;;;;0.20;0.20;;;;;;;;;;5022764;28;20032;-71
2021/12/01 03:19:57;;;;;;;0.20;0.20;;;;;;;;;;5022669;28;20092;-74
2021/12/01 03:22:23;;;;;;;0.10;0.10;;;;;;;;;;5022168;28;20402;-71
2021/12/01 03:24:50;;;;;;;0.20;0.20;;;;;;;;;;5022494;28;20326;-71
2021/12/01 03:27:15;;;;;;;0.20;0.20;;;;;;;;;;5021664;28;20480;-69
2021/12/01 03:29:41;;;;;;;0.20;0.20;;;;;;;;;;5021842;28;20087;-70
2021/12/01 03:32:07;;;;;;;0.17;0.17;;;;;;;;;;5022010;28;20056;-72
2021/12/01 03:34:36;;;;;;;0.20;0.20;;;;;;;;;;5021890;28;20127;-70
2021/12/01 03:37:02;;;;;;;0.10;0.10;;;;;;;;;;5019613;28;20037;-70
2021/12/01 03:39:27;;;;;;;0.68;0.20;;;;;;;;;;5021559;28;20037;-70
2021/12/01 03:41:53;;;;;;;0.20;0.20;;;;;;;;;;5020979;28;20092;-71
2021/12/01 03:44:18;;;;;;;0.20;0.20;;;;;;;;;;5023060;28;20112;-71
2021/12/01 03:46:44;;;;;;;0.20;0.20;;;;;;;;;;5023136;28;20377;-72
2021/12/01 03:49:09;;;;;;;0.20;0.20;;;;;;;;;;5022023;28;20099;-72
2021/12/01 03:51:35;;;;;;;0.20;0.20;;;;;;;;;;5023162;28;20132;-73
2021/12/01 03:54:00;;;;;;;0.10;0.10;;;;;;;;;;5022983;28;20053;-72
2021/12/01 03:56:26;;;;;;;0.22;0.22;;;;;;;;;;5021460;28;20132;-72
2021/12/01 03:58:53;;;;;;;0.20;0.20;;;;;;;;;;5021048;28;20041;-75
2021/12/01 04:01:19;;;;;;;0.15;0.15;;;;;;;;;;5021619;28;20029;-70
2021/12/01 04:03:45;;;;;;;0.20;0.20;;;;;;;;;;5021856;28;20048;-71
2021/12/01 04:06:10;;;;;;;0.63;0.20;;;;;;;;;;5020664;28;20044;-74
2021/12/01 04:08:36;;;;;;;0.20;0.20;;;;;;;;;;5021520;28;20078;-71
2021/12/01 04:11:02;;;;;;;0.20;0.20;;;;;;;;;;5021417;28;20056;-71
2021/12/01 04:13:27;;;;;;;0.30;0.30;;;;;;;;;;5036654;28;20100;-72
2021/12/01 04:15:52;;;;;;;0.20;0.20;;;;;;;;;;5019084;28;20041;-72
2021/12/01 04:18:18;;;;;;;0.10;0.10;;;;;;;;;;5021432;28;20426;-72
2021/12/01 04:20:43;;;;;;;0.20;0.20;;;;;;;;;;5020801;28;20041;-74
2021/12/01 04:23:09;;;;;;;4.97;0.30;;;;;;;;;;5020961;28;20064;-71
2021/12/01 04:25:35;;;;;;;0.40;0.40;;;;;;;;;;5021505;28;20496;-72
2021/12/01 04:28:01;;;;;;;0.20;0.20;;;;;;;;;;5020867;28;20071;-71
2021/12/01 04:30:26;;;;;;;0.10;0.10;;;;;;;;;;5019793;28;21838;-71
2021/12/01 04:32:53;;;;;;;0.30;0.30;;;;;;;;;;5022553;28;20041;-69
2021/12/01 04:35:21;;;;;;;0.22;0.22;;;;;;;;;;5024042;28;20064;-70
2021/12/01 04:37:48;;;;;;;0.20;0.20;;;;;;;;;;5024253;28;20072;-71
2021/12/01 04:40:13;;;;;;;0.30;0.30;;;;;;;;;;5024812;28;20104;-69
2021/12/01 04:42:39;;;;;;;0.20;0.20;;;;;;;;;;5023026;28;20049;-71
2021/12/01 04:45:14;;;;;;;0.22;0.22;;;;;;;;;;5024398;28;20033;-71
2021/12/01 04:47:45;;;;;;;0.30;0.30;;;;;;;;;;5021716;28;20041;-70
2021/12/01 04:50:12;;;;;;;0.20;0.20;;;;;;;;;;5021142;28;20087;-71
2021/12/01 04:52:37;;;;;;;0.20;0.20;;;;;;;;;;5021306;28;20037;-72
2021/12/01 04:55:04;;;;;;;0.30;0.30;;;;;;;;;;5020805;28;20442;-71
2021/12/01 04:57:29;;;;;;;0.52;0.28;;;;;;;;;;5020708;28;20511;-71
2021/12/01 04:59:55;;;;;;;0.28;0.28;;;;;;;;;;5020706;28;20022;-71
2021/12/01 05:02:20;;;;;;;0.13;0.13;;;;;;;;;;5020798;28;20412;-70
2021/12/01 05:04:46;;;;;;;0.20;0.20;;;;;;;;;;5022722;28;20484;-71
2021/12/01 05:07:13;;;;;;;0.20;0.20;;;;;;;;;;5022465;28;20029;-69
2021/12/01 05:09:40;;;;;;;0.20;0.20;;;;;;;;;;5021652;28;20041;-69
2021/12/01 05:12:09;;;;;;;0.40;0.40;;;;;;;;;;5020374;28;20112;-69
2021/12/01 05:14:35;;;;;;;0.40;0.20;;;;;;;;;;5019494;28;20064;-69
2021/12/01 05:17:01;;;;;;;0.20;0.20;;;;;;;;;;5020162;28;20496;-68
2021/12/01 05:19:27;;;;;;;0.30;0.30;;;;;;;;;;5021444;28;20139;-70
2021/12/01 05:21:52;;;;;;;0.25;0.25;;;;;;;;;;5020735;28;20120;-71
2021/12/01 05:24:17;;;;;;;0.22;0.22;;;;;;;;;;5020392;28;20120;-69
2021/12/01 05:26:43;;;;;;;0.20;0.20;;;;;;;;;;5019511;28;20077;-69
2021/12/01 05:29:09;;;;;;;0.65;0.40;;;;;;;;;;5020818;28;20041;-71
2021/12/01 05:31:34;;;;;;;1.20;0.40;;;;;;;;;;5021054;28;20116;-69
2021/12/01 05:34:00;;;;;;;0.30;0.30;;;;;;;;;;5021124;28;20037;-71
2021/12/01 05:36:25;;;;;;;0.52;0.52;;;;;;;;;;5021157;28;20120;-70
2021/12/01 05:38:51;;;;;;;0.80;0.40;;;;;;;;;;5021377;28;20538;-70
2021/12/01 05:41:16;;;;;;;0.20;0.20;;;;;;;;;;5021148;28;20038;-69
2021/12/01 05:43:43;;;;;;;1.17;0.30;;;;;;;;;;5021116;28;20045;-69
2021/12/01 05:46:09;;;;;;;1.70;0.30;;;;;;;;;;5023628;28;20033;-70
2021/12/01 05:48:34;;;;;;;0.32;0.32;;;;;;;;;;5026215;28;20601;-69
2021/12/01 05:50:59;;;;;;;0.30;0.30;;;;;;;;;;5024014;28;21356;-71
2021/12/01 05:53:25;;;;;;;1.55;0.45;;;;;;;;;;5024470;28;20045;-70
2021/12/01 05:55:51;;;;;;;0.30;0.30;;;;;;;;;;5025118;28;20040;-69
2021/12/01 05:58:17;;;;;;;0.30;0.30;;;;;;;;;;5025232;28;20025;-68
2021/12/01 06:00:42;;;;;;;0.55;0.30;;;;;;;;;;5024960;28;20041;-71
2021/12/01 06:03:08;;;;;;;0.30;0.30;;;;;;;;;;5024203;28;20523;-71
2021/12/01 06:05:34;;;;;;;0.25;0.25;;;;;;;;;;5025404;28;20025;-68
2021/12/01 06:07:59;;;;;;;0.57;0.40;;;;;;;;;;5024320;28;20044;-69
2021/12/01 06:10:25;;;;;;;0.30;0.30;;;;;;;;;;5023679;28;20095;-69
2021/12/01 06:12:52;;;;;;;0.30;0.30;;;;;;;;;;5023753;28;20091;-71
2021/12/01 06:15:18;;;;;;;0.20;0.20;;;;;;;;;;5024817;28;20075;-70
2021/12/01 06:17:43;;;;;;;0.30;0.30;;;;;;;;;;5023465;28;20060;-70
2021/12/01 06:20:11;;;;;;;0.30;0.30;;;;;;;;;;5022619;28;20041;-71
2021/12/01 06:22:37;;;;;;;0.20;0.20;;;;;;;;;;5021969;28;20060;-69
2021/12/01 06:25:03;;;;;;;0.30;0.30;;;;;;;;;;5022694;28;20872;-70
2021/12/01 06:27:28;;;;;;;0.20;0.20;;;;;;;;;;5023363;28;20049;-72
2021/12/01 06:29:54;;;;;;;0.55;0.35;;;;;;;;;;5054578;28;20025;-70
2021/12/01 06:32:20;;;;;;;0.45;0.45;;;;;;;;;;5021654;28;20037;-71
2021/12/01 06:34:46;;;;;;;0.30;0.30;;;;;;;;;;5023583;28;20091;-70
2021/12/01 06:37:12;;;;;;;0.73;0.40;;;;;;;;;;5024615;28;20033;-69
2021/12/01 06:39:38;;;;;;;0.35;0.30;;;;;;;;;;5024594;28;20038;-69
2021/12/01 06:42:03;;;;;;;0.35;0.35;;;;;;;;;;5024253;28;20040;-72
2021/12/01 06:44:33;;;;;;;0.30;0.30;;;;;;;;;;5025152;28;20766;-73
2021/12/01 06:47:00;;;;;;;0.63;0.50;;;;;;;;;;5025013;28;20037;-71
2021/12/01 06:49:25;;;;;;;2.28;0.60;;;;;;;;;;5024911;28;20175;-71
2021/12/01 06:51:51;;;;;;;1.40;0.30;;;;;;;;;;5024051;28;20072;-71
2021/12/01 06:54:16;;;;;;;0.25;0.25;;;;;;;;;;5024026;28;20067;-70
2021/12/01 06:56:42;;;;;;;0.20;0.20;;;;;;;;;;5022283;28;20045;-71
2021/12/01 06:59:08;;;;;;;0.57;0.40;;;;;;;;;;5023304;28;20095;-73
2021/12/01 07:01:33;;;;;;;0.38;0.38;;;;;;;;;;5023379;28;20411;-76
2021/12/01 07:03:58;;;;;;;0.50;0.47;;;;;;;;;;5024704;28;20032;-72
2021/12/01 07:06:24;;;;;;;0.32;0.32;;;;;;;;;;5023423;28;20029;-72
2021/12/01 07:08:49;;;;;;;0.30;0.30;;;;;;;;;;5023454;28;20506;-72
2021/12/01 07:11:15;;;;;;;0.40;0.40;;;;;;;;;;5022721;28;20045;-72
2021/12/01 07:13:40;;;;;;;1.98;0.40;;;;;;;;;;5055357;28;20056;-74
2021/12/01 07:16:06;;;;;;;3.03;0.75;;;;;;;;;;5022298;28;20049;-71
2021/12/01 07:18:31;;;;;;;1.38;0.60;;;;;;;;;;5022609;28;20033;-71
2021/12/01 07:20:57;;;;;;;0.25;0.25;;;;;;;;;;5022290;28;20041;-73
2021/12/01 07:23:23;;;;;;;0.30;0.30;;;;;;;;;;5054350;28;20147;-69
2021/12/01 07:25:49;;;;;;;0.30;0.30;;;;;;;;;;5022568;28;20039;-71
2021/12/01 07:28:15;;;;;;;0.47;0.47;;;;;;;;;;5022893;28;20032;-70
2021/12/01 07:30:40;;;;;;;0.30;0.30;;;;;;;;;;5022601;28;20029;-73
2021/12/01 07:33:07;;;;;;;0.80;0.50;;;;;;;;;;5022269;28;20040;-71
2021/12/01 07:35:32;;;;;;;0.35;0.35;;;;;;;;;;5022372;28;20037;-71
2021/12/01 07:37:58;;;;;;;0.30;0.30;;;;;;;;;;5021732;28;20506;-71
2021/12/01 07:40:23;;;;;;;0.30;0.30;;;;;;;;;;5022629;28;20120;-71
2021/12/01 07:42:49;;;;;;;0.32;0.32;;;;;;;;;;5022211;28;20071;-71
2021/12/01 07:45:15;;;;;;;0.40;0.40;;;;;;;;;;5022621;28;20526;-72
2021/12/01 07:47:40;;;;;;;0.50;0.50;;;;;;;;;;5022253;28;20044;-73
2021/12/01 07:50:07;;;;;;;0.55;0.55;;;;;;;;;;5022183;28;20037;-70
2021/12/01 07:52:33;;;;;;;0.80;0.80;;;;;;;;;;5022385;28;20037;-72
2021/12/01 07:54:59;;;;;;;0.40;0.40;;;;;;;;;;5022522;28;20095;-72
2021/12/01 07:57:25;;;;;;;0.40;0.40;;;;;;;;;;5023013;28;20045;-71
2021/12/01 07:59:50;;;;;;;0.50;0.50;;;;;;;;;;5023537;28;20112;-74
2021/12/01 08:02:15;;;;;;;0.40;0.40;;;;;;;;;;5021897;28;20057;-71
2021/12/01 08:04:42;;;;;;;1.42;0.50;;;;;;;;;;5022198;28;20160;-70
2021/12/01 08:07:07;;;;;;;1.95;0.40;;;;;;;;;;5024322;28;20511;-71
2021/12/01 08:09:33;;;;;;;0.65;0.65;;;;;;;;;;5024757;28;20045;-71
2021/12/01 08:11:59;;;;;;;0.40;0.40;;;;;;;;;;5025138;28;20044;-71
2021/12/01 08:14:24;;;;;;;0.40;0.40;;;;;;;;;;5023709;28;20047;-72
2021/12/01 08:16:50;;;;;;;0.60;0.30;;;;;;;;;;5025719;28;20085;-71
2021/12/01 08:19:16;;;;;;;2.10;0.30;;;;;;;;;;5023859;28;20103;-69
2021/12/01 08:21:46;;;;;;;0.22;0.22;;;;;;;;;;5023284;28;20176;-71
2021/12/01 08:24:13;;;;;;;0.22;0.22;;;;;;;;;;5026006;28;20503;-70
2021/12/01 08:26:40;;;;;;;0.50;0.50;;;;;;;;;;5024159;28;20033;-71
2021/12/01 08:29:06;;;;;;;8.82;0.88;;;;;;;;;;5022667;28;20543;-71
2021/12/01 08:31:31;;;;;;;1.90;1.02;;;;;;;;;;5022593;28;20112;-71
2021/12/01 08:33:57;;;;;;;0.57;0.55;;;;;;;;;;5025263;28;20123;-71
2021/12/01 08:36:22;;;;;;;0.35;0.35;;;;;;;;;;5025260;28;20065;-72
2021/12/01 08:38:48;;;;;;;0.40;0.40;;;;;;;;;;5020484;28;20033;-70
2021/12/01 08:41:13;;;;;;;0.50;0.50;;;;;;;;;;5021506;28;20037;-71
2021/12/01 08:43:39;;;;;;;0.70;0.60;;;;;;;;;;5021667;28;20037;-71
2021/12/01 08:46:06;;;;;;;0.80;0.55;;;;;;;;;;5021761;28;20130;-71
2021/12/01 08:48:32;;;;;;;0.50;0.50;;;;;;;;;;5021739;28;20056;-71
2021/12/01 08:51:01;;;;;;;1.90;0.50;;;;;;;;;;5022325;28;20038;-72
2021/12/01 08:53:28;;;;;;;0.50;0.50;;;;;;;;;;5022460;28;20869;-70
2021/12/01 08:55:54;;;;;;;0.63;0.52;;;;;;;;;;5024109;28;20042;-70
2021/12/01 08:58:19;;;;;;;0.52;0.52;;;;;;;;;;5021405;28;20033;-70
2021/12/01 09:00:46;;;;;;;1.48;0.60;;;;;;;;;;5020614;28;20404;-70
2021/12/01 09:03:13;;;;;;;1.65;0.40;;;;;;;;;;5019908;28;20045;-71
2021/12/01 09:05:39;;;;;;;0.30;0.30;;;;;;;;;;5020099;28;20480;-72
2021/12/01 09:08:05;;;;;;;0.70;0.70;;;;;;;;;;5019400;28;20037;-72
2021/12/01 09:10:31;;;;;;;0.50;0.50;;;;;;;;;;5036733;28;20049;-71
2021/12/01 09:12:57;;;;;;;0.50;0.50;;;;;;;;;;5021731;28;20033;-71
2021/12/01 09:15:23;;;;;;;0.40;0.40;;;;;;;;;;5022054;28;20504;-70
2021/12/01 09:17:48;;;;;;;2.20;0.68;;;;;;;;;;5022323;28;20045;-73
2021/12/01 09:20:14;;;;;;;1.45;0.50;;;;;;;;;;5025771;28;20029;-69
2021/12/01 09:22:40;;;;;;;0.50;0.50;;;;;;;;;;5026730;28;20061;-73
2021/12/01 09:25:07;;;;;;;0.43;0.43;;;;;;;;;;5026579;28;20455;-71
2021/12/01 09:27:32;;;;;;;0.95;0.90;;;;;;;;;;5026126;28;20033;-72
2021/12/01 09:29:58;;;;;;;0.50;0.50;;;;;;;;;;5025644;28;20898;-72
2021/12/01 09:32:23;;;;;;;0.40;0.40;;;;;;;;;;5025129;28;20041;-73
2021/12/01 09:34:49;;;;;;;0.50;0.50;;;;;;;;;;5026902;28;20084;-75
2021/12/01 09:37:16;;;;;;;0.60;0.60;;;;;;;;;;5025765;28;20040;-73
2021/12/01 09:39:42;;;;;;;1.00;0.77;;;;;;;;;;5024967;28;20079;-73
2021/12/01 09:42:08;;;;;;;0.70;0.70;;;;;;;;;;5024729;28;20452;-73
2021/12/01 09:44:36;;;;;;;0.45;0.45;;;;;;;;;;5056508;28;20103;-72
2021/12/01 09:47:02;;;;;;;0.40;0.40;;;;;;;;;;5024448;28;20561;-74
2021/12/01 09:49:27;;;;;;;1.17;0.70;;;;;;;;;;5023968;28;20033;-72
2021/12/01 09:51:53;;;;;;;0.30;0.30;;;;;;;;;;5025775;28;20053;-71
2021/12/01 09:54:18;;;;;;;0.38;0.38;;;;;;;;;;5059674;28;20021;-70
2021/12/01 09:56:44;;;;;;;0.32;0.32;;;;;;;;;;5027141;28;20530;-74
2021/12/01 09:59:09;;;;;;;0.40;0.40;;;;;;;;;;5024941;28;20041;-71
2021/12/01 10:01:35;;;;;;;0.30;0.30;;;;;;;;;;5023557;28;20033;-72
2021/12/01 10:04:01;;;;;;;0.80;0.68;;;;;;;;;;5025640;28;20045;-70
2021/12/01 10:06:27;;;;;;;0.80;0.80;;;;;;;;;;5024871;28;20117;-70
2021/12/01 10:09:00;;;;;;;0.40;0.40;;;;;;;;;;5024722;28;20117;-72
2021/12/01 10:11:33;;;;;;;1.13;0.65;;;;;;;;;;5024114;28;20038;-71
2021/12/01 10:14:07;;;;;;;0.55;0.55;;;;;;;;;;5026176;28;20033;-70
2021/12/01 10:16:36;;;;;;;0.50;0.50;;;;;;;;;;5026060;28;20454;-72
2021/12/01 10:19:10;;;;;;;0.32;0.32;;;;;;;;;;5025790;28;20033;-71
2021/12/01 10:21:38;;;;;;;0.28;0.28;;;;;;;;;;5024382;28;20087;-70
2021/12/01 10:24:17;;;;;;;0.60;0.60;;;;;;;;;;5024305;28;20132;-72
2021/12/01 10:26:45;;;;;;;0.40;0.40;;;;;;;;;;5025787;28;20670;-70
2021/12/01 10:29:16;;;;;;;0.40;0.40;;;;;;;;;;5024675;28;20025;-73
2021/12/01 10:32:18;;;;;;;0.50;0.50;;;;;;;;;;5023411;28;20037;-72
2021/12/01 10:34:53;;;;;;;0.60;0.60;;;;;;;;;;5023594;28;20065;-74
2021/12/01 10:37:30;;;;;;;0.40;0.40;;;;;;;;;;5024788;28;20763;-71
2021/12/01 10:40:18;;;;;;;0.40;0.40;;;;;;;;;;5025459;28;20035;-71
2021/12/01 10:42:53;;;;;;;0.30;0.30;;;;;;;;;;5023082;28;20092;-71
2021/12/01 10:45:24;;;;;;;0.32;0.32;;;;;;;;;;5022921;28;20136;-71
2021/12/01 10:47:50;;;;;;;1.40;0.22;;;;;;;;;;5023695;28;20044;-73
2021/12/01 10:50:18;;;;;;;0.45;0.45;;;;;;;;;;5024084;28;20025;-72
2021/12/01 10:52:49;;;;;;;0.25;0.25;;;;;;;;;;5022535;28;20056;-72
2021/12/01 10:55:24;;;;;;;0.30;0.30;;;;;;;;;;5022672;28;20056;-70
2021/12/01 10:57:59;;;;;;;0.35;0.35;;;;;;;;;;5022595;28;20041;-70
2021/12/01 11:00:28;;;;;;;0.82;0.63;;;;;;;;;;5023336;28;20044;-70
2021/12/01 11:03:05;;;;;;;0.30;0.30;;;;;;;;;;5022677;28;20851;-71
2021/12/01 11:05:33;;;;;;;0.90;0.90;;;;;;;;;;5022350;28;20049;-70
2021/12/01 11:08:19;;;;;;;0.50;0.50;;;;;;;;;;5020632;28;20969;-70
2021/12/01 11:11:04;;;;;;;0.30;0.30;;;;;;;;;;5020933;28;20048;-70
2021/12/01 11:13:29;;;;;;;0.50;0.50;;;;;;;;;;5023383;28;20053;-71
2021/12/01 11:15:57;;;;;;;0.88;0.38;;;;;;;;;;5054912;28;20084;-70
2021/12/01 11:18:28;;;;;;;0.47;0.38;;;;;;;;;;5054112;28;20091;-70
2021/12/01 11:21:00;;;;;;;0.43;0.30;;;;;;;;;;5037950;28;20493;-70
2021/12/01 11:23:30;;;;;;;0.57;0.40;;;;;;;;;;5054184;28;20534;-72
2021/12/01 11:26:11;;;;;;;0.30;0.30;;;;;;;;;;5023187;28;20044;-71
2021/12/01 11:28:51;;;;;;;0.38;0.30;;;;;;;;;;5022520;28;20041;-70
2021/12/01 11:31:29;;;;;;;0.30;0.30;;;;;;;;;;5022400;28;20037;-72
2021/12/01 11:33:57;;;;;;;0.28;0.28;;;;;;;;;;5022315;28;20496;-72
2021/12/01 11:36:30;;;;;;;0.30;0.30;;;;;;;;;;5022448;28;20087;-71
2021/12/01 11:39:00;;;;;;;0.20;0.20;;;;;;;;;;5021997;28;20037;-72
2021/12/01 11:41:28;;;;;;;0.55;0.35;;;;;;;;;;5021589;28;20399;-70
2021/12/01 11:43:53;;;;;;;0.35;0.35;;;;;;;;;;5023556;28;20072;-70
2021/12/01 11:46:19;;;;;;;4.38;0.45;;;;;;;;;;5038364;28;20069;-70
2021/12/01 11:48:47;;;;;;;1.48;0.40;;;;;;;;;;5022964;28;20042;-70
2021/12/01 11:51:36;;;;;;;0.20;0.20;;;;;;;;;;5022876;28;20108;-70
2021/12/01 11:54:09;;;;;;;0.20;0.20;;;;;;;;;;5022275;28;20211;-71
2021/12/01 11:56:36;;;;;;;0.40;0.40;;;;;;;;;;5022959;28;20037;-70
2021/12/01 11:59:14;;;;;;;0.60;0.60;;;;;;;;;;5022226;28;20108;-70
2021/12/01 12:01:58;;;;;;;1.13;0.60;;;;;;;;;;5021929;28;20060;-71
2021/12/01 12:04:25;;;;;;;4.30;0.77;;;;;;;;;;5054722;28;20037;-71
2021/12/01 12:07:04;;;;;;;1.83;1.00;;;;;;;;;;5021359;28;20041;-71
2021/12/01 12:09:30;;;;;;;2.60;0.90;;;;;;;;;;5023230;28;20090;-70
2021/12/01 12:12:20;;;;;;;1.10;0.68;;;;;;;;;;5054439;28;20488;-71
2021/12/01 12:14:45;;;;;;;2.30;1.60;;;;;;;;;;5023994;28;20068;-71
2021/12/01 12:17:14;;;;;;;3.45;0.90;;;;;;;;;;5028021;28;20396;-71
2021/12/01 12:19:56;;;;;;;0.82;0.82;;;;;;;;;;5058958;28;20018;-70
2021/12/01 12:22:48;;;;;;;0.88;0.65;;;;;;;;;;5038108;28;21130;-70
2021/12/01 12:25:32;;;;;;;;;;;;;;;;;;5021912;28;20045;-71
2021/12/01 12:27:58;;;;;;;0.77;0.77;;;;;;;;;;5021425;28;20024;-73
2021/12/01 12:30:29;;;;;;;0.80;0.80;;;;;;;;;;5021860;28;20176;-71
2021/12/01 12:33:17;;;;;;;1.20;1.10;;;;;;;;;;5022436;28;20053;-71
2021/12/01 12:35:44;;;;;;;1.88;1.20;;;;;;;;;;5021929;28;20029;-71
2021/12/01 12:38:11;;;;;;;1.15;1.00;;;;;;;;;;5040864;28;20033;-70
2021/12/01 12:40:38;;;;;;;2.47;1.00;;;;;;;;;;5027011;28;20501;-71
2021/12/01 12:43:08;;;;;;;1.00;0.90;;;;;;;;;;5025596;28;20052;-72
2021/12/01 12:45:35;;;;;;;1.00;0.90;;;;;;;;;;5024594;28;20037;-72
2021/12/01 12:48:00;;;;;;;1.25;0.80;;;;;;;;;;5022677;28;20075;-71
2021/12/01 12:50:26;;;;;;;1.13;0.73;;;;;;;;;;5022399;28;20484;-73
2021/12/01 12:53:05;;;;;;;1.10;1.00;;;;;;;;;;5023766;28;20064;-71
2021/12/01 12:55:57;;;;;;;1.95;1.30;;;;;;;;;;5025311;28;20092;-71
2021/12/01 12:58:35;;;;;;;1.00;0.90;;;;;;;;;;5027038;28;20056;-72
2021/12/01 13:01:00;;;;;;;1.77;0.95;;;;;;;;;;5025097;28;20048;-70
2021/12/01 13:03:29;;;;;;;1.83;1.42;;;;;;;;;;5025828;28;20045;-71
2021/12/01 13:05:58;;;;;;;0.82;0.82;;;;;;;;;;5029947;28;20128;-71
2021/12/01 13:08:49;;;;;;;0.98;0.85;;;;;;;;;;5028220;28;20083;-70
2021/12/01 13:11:20;;;;;;;3.90;0.60;;;;;;;;;;5026986;28;20033;-72
2021/12/01 13:14:03;;;;;;;3.03;0.68;;;;;;;;;;5025973;28;20053;-71
2021/12/01 13:16:30;;;;;;;1.92;0.60;;;;;;;;;;5027670;28;20041;-71
2021/12/01 13:19:03;;;;;;;0.45;0.43;;;;;;;;;;5027099;28;20076;-70
2021/12/01 13:21:28;;;;;;;0.43;0.43;;;;;;;;;;5024471;28;20045;-70
2021/12/01 13:23:56;;;;;;;0.57;0.50;;;;;;;;;;5024262;28;20095;-72
2021/12/01 13:26:28;;;;;;;0.65;0.60;;;;;;;;;;5027372;28;20088;-73
2021/12/01 13:29:05;;;;;;;0.73;0.73;;;;;;;;;;5024956;28;20508;-72
2021/12/01 13:31:31;;;;;;;0.80;0.80;;;;;;;;;;5025828;28;20045;-70
2021/12/01 13:34:18;;;;;;;2.13;1.00;;;;;;;;;;5025046;28;20052;-72
2021/12/01 13:36:52;;;;;;;0.90;0.90;;;;;;;;;;5026053;28;20195;-72
2021/12/01 13:39:21;;;;;;;1.15;1.05;;;;;;;;;;5024824;28;20041;-71
2021/12/01 13:42:03;;;;;;;0.85;0.82;;;;;;;;;;5020566;28;20037;-72
2021/12/01 13:44:37;;;;;;;1.48;1.30;;;;;;;;;;5023242;28;20108;-71
2021/12/01 13:47:19;;;;;;;2.50;1.10;;;;;;;;;;5023349;28;20052;-71
2021/12/01 13:49:49;;;;;;;3.28;1.50;;;;;;;;;;5023849;28;20029;-71
2021/12/01 13:52:37;;;;;;;2.33;1.60;;;;;;;;;;5022620;28;20048;-71
2021/12/01 13:55:23;;;;;;;2.13;1.23;;;;;;;;;;5023814;28;20440;-72
2021/12/01 13:58:06;;;;;;;1.92;1.30;;;;;;;;;;5023895;28;20403;-71
2021/12/01 14:00:36;;;;;;;3.15;1.33;;;;;;;;;;5023722;28;20647;-71
2021/12/01 14:03:03;;;;;;;1.35;1.25;;;;;;;;;;5023731;28;20064;-71
2021/12/01 14:05:28;;;;;;;4.13;1.00;;;;;;;;;;5023773;28;20042;-71
2021/12/01 14:08:08;;;;;;;3.13;1.10;;;;;;;;;;5023562;28;20119;-71
2021/12/01 14:10:51;;;;;;;1.85;1.30;;;;;;;;;;5024292;28;20575;-71
2021/12/01 14:13:19;;;;;;;0.95;0.90;;;;;;;;;;5023325;28;20071;-72
2021/12/01 14:15:45;;;;;;;0.50;0.50;;;;;;;;;;5023730;28;20116;-74
2021/12/01 14:18:15;;;;;;;0.63;0.63;;;;;;;;;;5023005;28;20099;-72
2021/12/01 14:20:41;;;;;;;0.55;0.55;;;;;;;;;;5021810;28;20484;-75
2021/12/01 14:23:07;;;;;;;0.30;0.30;;;;;;;;;;5021865;28;20025;-72
2021/12/01 14:25:33;;;;;;;0.28;0.28;;;;;;;;;;5021540;28;20033;-76
2021/12/01 14:28:05;;;;;;;0.32;0.32;;;;;;;;;;5023189;28;20507;-75
2021/12/01 14:30:32;;;;;;;2.90;0.47;;;;;;;;;;5021390;28;20076;-72
2021/12/01 14:32:57;;;;;;;1.42;0.52;;;;;;;;;;5021047;28;20505;-72
2021/12/01 14:35:23;;;;;;;0.30;0.30;;;;;;;;;;5022747;28;20112;-72
2021/12/01 14:37:49;;;;;;;0.47;0.47;;;;;;;;;;5022871;28;20033;-77
2021/12/01 14:40:17;;;;;;;0.57;0.57;;;;;;;;;;5022993;28;21021;-70
2021/12/01 14:42:44;;;;;;;0.40;0.40;;;;;;;;;;5021902;28;20115;-69
2021/12/01 14:45:10;;;;;;;0.50;0.50;;;;;;;;;;5022471;28;20041;-69
2021/12/01 14:47:36;;;;;;;0.38;0.38;;;;;;;;;;5021886;28;20051;-69
2021/12/01 14:50:04;;;;;;;0.40;0.40;;;;;;;;;;5022111;28;20030;-70
2021/12/01 14:52:39;;;;;;;1.67;1.38;;;;;;;;;;5022017;28;20571;-69
2021/12/01 14:55:13;;;;;;;2.58;0.38;;;;;;;;;;5022448;28;20099;-68
2021/12/01 14:57:51;;;;;;;0.50;0.50;;;;;;;;;;5022058;28;20496;-68